Time;durP1;ratioP1;P1;durP2;ratioP2;P2;SDS_P1;SDS_P2;PMS_P1;PMS_P2;Temp;Humidity;BMP_temperature;BMP_pressure;BME280_temperature;BME280_humidity;BME280_pressure;Samples;Min_cycle;Max_cycle;Signal;HPM_P1;HPM_P2
2022/01/16 00:06:28;;;;;;;49.00;22.00;;;;;;;;;;5028393;28;20447;-70
2022/01/16 00:08:53;;;;;;;43.70;20.60;;;3.20;99.90;;;;;;5025814;28;20448;-70
2022/01/16 00:11:19;;;;;;;45.27;20.57;;;3.30;99.90;;;;;;5030068;28;20507;-70
2022/01/16 00:13:45;;;;;;;46.20;20.70;;;3.30;99.90;;;;;;5030227;28;20208;-69
2022/01/16 00:16:13;;;;;;;40.27;19.53;;;;;;;;;;5047630;28;20172;-71
2022/01/16 00:18:54;;;;;;;50.37;21.60;;;3.10;99.90;;;;;;5033847;28;20189;-69
2022/01/16 00:21:21;;;;;;;48.50;21.50;;;3.20;99.90;;;;;;5028252;28;20420;-70
2022/01/16 00:23:47;;;;;;;50.77;20.70;;;3.20;99.90;;;;;;5027305;28;20842;-71
2022/01/16 00:26:13;;;;;;;47.10;21.03;;;3.20;99.90;;;;;;5027018;28;20412;-70
2022/01/16 00:28:38;;;;;;;49.73;21.23;;;3.00;99.90;;;;;;5027914;28;20447;-70
2022/01/16 00:31:04;;;;;;;46.67;20.93;;;3.20;99.90;;;;;;5027279;28;20582;-69
2022/01/16 00:33:29;;;;;;;47.30;20.40;;;3.30;99.90;;;;;;5026331;28;20511;-70
2022/01/16 00:35:55;;;;;;;44.90;19.77;;;;;;;;;;5027682;28;20560;-70
2022/01/16 00:38:21;;;;;;;46.20;21.20;;;3.20;99.90;;;;;;5027782;28;20182;-69
2022/01/16 00:40:47;;;;;;;44.50;19.70;;;;;;;;;;5026215;28;20198;-71
2022/01/16 00:43:14;;;;;;;41.40;19.17;;;;;;;;;;5027950;28;20573;-70
2022/01/16 00:45:40;;;;;;;46.07;20.60;;;3.20;99.90;;;;;;5028369;28;20166;-69
2022/01/16 00:48:07;;;;;;;44.30;19.83;;;3.20;99.90;;;;;;5026241;28;20522;-69
2022/01/16 00:50:34;;;;;;;47.00;19.90;;;3.20;99.90;;;;;;5025983;28;20197;-69
2022/01/16 00:53:00;;;;;;;39.77;19.43;;;3.10;99.90;;;;;;5026688;28;20428;-69
2022/01/16 00:55:27;;;;;;;48.00;20.00;;;3.10;99.90;;;;;;5027356;28;20501;-70
2022/01/16 00:57:52;;;;;;;40.10;18.00;;;2.90;99.90;;;;;;5025422;28;20439;-70
2022/01/16 01:00:19;;;;;;;50.50;21.40;;;;;;;;;;5031072;28;20977;-69
2022/01/16 01:02:44;;;;;;;46.17;18.20;;;2.90;99.90;;;;;;5028665;28;20790;-71
2022/01/16 01:05:10;;;;;;;48.53;20.80;;;2.90;99.90;;;;;;5024828;28;20511;-71
2022/01/16 01:07:38;;;;;;;49.50;19.80;;;2.80;99.90;;;;;;5029105;28;20254;-71
2022/01/16 01:10:05;;;;;;;51.17;21.27;;;2.90;99.90;;;;;;5037121;28;20460;-70
2022/01/16 01:12:43;;;;;;;45.50;19.70;;;2.90;99.90;;;;;;5025538;28;20443;-70
2022/01/16 01:15:10;;;;;;;51.00;20.63;;;;;;;;;;5030087;28;20893;-69
2022/01/16 01:17:48;;;;;;;43.63;20.80;;;2.90;99.90;;;;;;5035271;28;20482;-70
2022/01/16 01:20:17;;;;;;;51.63;21.70;;;2.90;99.90;;;;;;5027278;28;20475;-70
2022/01/16 01:22:45;;;;;;;49.17;22.03;;;2.80;99.90;;;;;;5025333;28;20513;-70
2022/01/16 01:25:14;;;;;;;54.27;21.13;;;2.80;99.90;;;;;;5026811;28;20502;-69
2022/01/16 01:27:44;;;;;;;55.67;23.33;;;2.80;99.90;;;;;;5033004;28;20725;-70
2022/01/16 01:30:12;;;;;;;57.93;22.80;;;2.80;99.90;;;;;;5028837;28;20452;-69
2022/01/16 01:32:38;;;;;;;56.23;22.80;;;;;;;;;;5040467;28;20435;-71
2022/01/16 01:35:06;;;;;;;52.63;22.70;;;2.80;99.90;;;;;;5028490;28;20475;-70
2022/01/16 01:37:32;;;;;;;52.30;22.03;;;2.70;99.90;;;;;;5017989;28;20915;-71
2022/01/16 01:39:57;;;;;;;61.40;25.77;;;2.70;99.90;;;;;;5023406;28;20479;-70
2022/01/16 01:42:30;;;;;;;55.83;23.70;;;2.70;99.90;;;;;;5025546;28;20213;-70
2022/01/16 01:53:13;;;;;;;50.93;22.17;;;2.70;99.90;;;;;;5026205;28;20420;-70
2022/01/16 01:55:42;;;;;;;61.67;24.40;;;3.20;99.90;;;;;;5026420;28;20815;-71
2022/01/16 01:58:08;;;;;;;53.30;22.47;;;3.30;99.90;;;;;;5023448;28;20432;-70
2022/01/16 02:00:33;;;;;;;54.20;23.37;;;2.80;99.90;;;;;;5026134;28;20502;-71
2022/01/16 02:03:13;;;;;;;64.93;24.60;;;2.70;99.90;;;;;;5025044;28;20481;-71
2022/01/16 02:05:41;;;;;;;60.03;23.77;;;2.70;99.90;;;;;;5025219;28;20616;-70
2022/01/16 02:08:07;;;;;;;55.43;24.10;;;2.70;99.90;;;;;;5025047;28;20451;-70
2022/01/16 02:10:36;;;;;;;50.17;24.10;;;2.60;99.90;;;;;;5030711;28;20534;-70
2022/01/16 02:13:06;;;;;;;61.43;24.73;;;2.70;99.90;;;;;;5026825;28;20424;-71
2022/01/16 02:37:03;;;;;;;56.87;22.70;;;2.60;99.90;;;;;;5030771;28;20511;-71
2022/01/16 02:39:35;;;;;;;61.53;23.90;;;2.50;99.90;;;;;;5028719;28;20800;-70
2022/01/16 02:42:01;;;;;;;63.03;23.20;;;;;;;;;;5030282;28;20526;-70
2022/01/16 02:46:55;;;;;;;62.13;23.20;;;2.60;99.90;;;;;;5029233;28;20971;-70
2022/01/16 02:49:24;;;;;;;67.70;23.27;;;2.60;99.90;;;;;;5029270;28;20615;-71
2022/01/16 02:51:54;;;;;;;63.53;23.57;;;2.70;99.90;;;;;;5029143;28;20428;-70
2022/01/16 02:54:19;;;;;;;63.23;24.10;;;2.50;99.90;;;;;;5028842;28;20421;-70
2022/01/16 02:56:45;;;;;;;67.53;22.07;;;;;;;;;;5029526;28;20428;-70
2022/01/16 02:59:12;;;;;;;69.60;23.40;;;2.40;99.90;;;;;;5030274;28;20583;-70
2022/01/16 03:01:39;;;;;;;79.53;22.60;;;2.40;99.90;;;;;;5029871;28;20447;-70
2022/01/16 03:04:05;;;;;;;64.23;22.53;;;2.30;99.90;;;;;;5028702;28;20431;-70
2022/01/16 03:06:31;;;;;;;73.23;23.27;;;2.40;99.90;;;;;;5028598;28;20420;-70
2022/01/16 03:08:56;;;;;;;71.83;23.67;;;2.30;99.90;;;;;;5027087;28;20533;-70
2022/01/16 03:11:33;;;;;;;67.30;21.90;;;;;;;;;;5027692;28;20272;-70
2022/01/16 03:13:59;;;;;;;61.43;22.23;;;;;;;;;;5029586;28;20531;-69
2022/01/16 03:16:25;;;;;;;60.33;21.33;;;2.20;99.90;;;;;;5029036;28;20428;-70
2022/01/16 03:21:54;;;;;;;55.63;19.73;;;;;;;;;;5020286;28;20609;-69
2022/01/16 03:24:29;;;;;;;59.10;22.33;;;2.20;99.90;;;;;;5028737;28;20431;-71
2022/01/16 03:26:56;;;;;;;57.37;19.53;;;;;;;;;;5024535;28;21218;-70
2022/01/16 03:29:22;;;;;;;51.83;19.67;;;;;;;;;;5029768;28;20852;-70
2022/01/16 03:31:48;;;;;;;56.20;19.40;;;2.20;99.90;;;;;;5028222;28;20531;-70
2022/01/16 03:34:14;;;;;;;53.00;19.30;;;2.20;99.90;;;;;;5029610;28;20479;-70
2022/01/16 03:36:40;;;;;;;51.53;19.20;;;2.20;99.90;;;;;;5028965;28;20862;-70
2022/01/16 03:39:06;;;;;;;46.77;18.50;;;2.20;99.90;;;;;;5028338;28;20591;-71
2022/01/16 03:41:33;;;;;;;45.73;19.20;;;2.20;99.90;;;;;;5028669;28;20236;-69
2022/01/16 03:44:02;;;;;;;50.63;18.23;;;2.20;99.90;;;;;;5028920;28;20417;-70
2022/01/16 03:46:34;;;;;;;49.77;19.87;;;2.20;99.90;;;;;;5020494;28;20419;-70
2022/01/16 03:49:20;;;;;;;55.03;20.60;;;2.30;99.90;;;;;;5028060;28;20432;-71
2022/01/16 03:51:47;;;;;;;47.93;19.40;;;2.30;99.90;;;;;;5011707;28;20945;-70
2022/01/16 03:54:16;;;;;;;44.00;18.37;;;2.50;99.90;;;;;;5027929;28;20480;-70
2022/01/16 03:56:42;;;;;;;45.30;18.13;;;2.40;99.90;;;;;;5027519;28;20701;-70
2022/01/16 03:59:07;;;;;;;47.20;19.50;;;2.20;99.90;;;;;;5027898;28;21030;-70
2022/01/16 04:01:33;;;;;;;47.60;20.60;;;2.20;99.90;;;;;;5028627;28;20447;-70
2022/01/16 04:03:59;;;;;;;48.03;19.30;;;2.10;99.90;;;;;;5028328;28;20206;-69
2022/01/16 04:06:25;;;;;;;44.67;17.70;;;;;;;;;;5028451;28;20893;-69
2022/01/16 04:08:54;;;;;;;41.80;18.60;;;2.10;99.90;;;;;;5027615;28;20205;-69
2022/01/16 04:11:24;;;;;;;50.00;18.50;;;2.10;99.90;;;;;;5027242;28;20443;-69
2022/01/16 04:14:14;;;;;;;43.00;18.43;;;2.40;99.90;;;;;;5024020;28;21149;-70
2022/01/16 04:16:38;;;;;;;38.60;17.13;;;;;;;;;;5029984;28;20436;-69
2022/01/16 04:19:05;;;;;;;51.57;17.53;;;2.00;99.90;;;;;;5034677;28;20456;-70
2022/01/16 04:21:31;;;;;;;47.90;17.33;;;2.00;99.90;;;;;;5028576;28;20189;-70
2022/01/16 04:23:58;;;;;;;40.40;17.20;;;1.90;99.90;;;;;;5027606;28;20854;-69
2022/01/16 04:26:25;;;;;;;38.77;17.70;;;1.90;99.90;;;;;;5027744;28;20481;-69
2022/01/16 04:28:51;;;;;;;39.50;17.30;;;;;;;;;;5027201;28;20436;-70
2022/01/16 04:31:17;;;;;;;39.83;15.87;;;1.80;99.90;;;;;;4993616;28;20437;-70
2022/01/16 04:33:44;;;;;;;38.40;15.93;;;;;;;;;;5028194;28;20436;-69
2022/01/16 04:36:10;;;;;;;41.97;16.30;;;1.60;99.90;;;;;;5025883;28;20257;-69
2022/01/16 04:38:38;;;;;;;41.33;16.27;;;;;;;;;;5026591;28;20660;-70
2022/01/16 04:43:50;;;;;;;31.97;15.30;;;1.60;99.90;;;;;;5013062;28;20467;-69
2022/01/16 04:46:16;;;;;;;41.40;16.10;;;;;;;;;;5027600;28;20906;-70
2022/01/16 04:48:43;;;;;;;47.30;19.10;;;1.60;99.90;;;;;;5028400;28;20505;-69
2022/01/16 04:51:09;;;;;;;42.83;17.37;;;;;;;;;;5028205;28;20447;-69
2022/01/16 04:53:34;;;;;;;46.33;18.10;;;1.60;99.90;;;;;;5024933;28;20916;-70
2022/01/16 04:56:00;;;;;;;47.63;17.80;;;1.70;99.90;;;;;;5025811;28;20443;-69
2022/01/16 04:58:25;;;;;;;39.90;16.60;;;2.10;99.90;;;;;;5028624;28;20193;-69
2022/01/16 05:00:51;;;;;;;45.57;17.43;;;1.70;99.90;;;;;;5027298;28;20198;-69
2022/01/16 05:03:16;;;;;;;49.30;17.73;;;1.80;99.90;;;;;;5026498;28;20237;-70
2022/01/16 05:05:42;;;;;;;46.03;18.60;;;1.80;99.90;;;;;;5028656;28;20178;-70
2022/01/16 05:08:07;;;;;;;47.60;16.90;;;1.60;99.90;;;;;;5028041;28;20279;-70
2022/01/16 05:10:33;;;;;;;43.77;18.63;;;;;;;;;;5028178;28;20206;-69
2022/01/16 05:13:25;;;;;;;43.47;17.90;;;1.60;99.90;;;;;;5027634;28;20717;-70
2022/01/16 05:18:28;;;;;;;43.20;18.63;;;1.60;99.90;;;;;;5027307;28;20921;-69
2022/01/16 05:20:54;;;;;;;48.87;17.83;;;1.60;99.90;;;;;;5028249;28;20417;-69
2022/01/16 05:23:20;;;;;;;50.10;18.97;;;;;;;;;;5026854;28;20210;-69
2022/01/16 05:25:45;;;;;;;39.87;18.07;;;1.60;99.90;;;;;;5027215;28;20631;-70
2022/01/16 05:28:11;;;;;;;50.00;18.47;;;1.60;99.90;;;;;;5028216;28;20592;-69
2022/01/16 05:30:36;;;;;;;48.17;19.23;;;1.60;99.90;;;;;;5026527;28;20209;-69
2022/01/16 05:33:02;;;;;;;50.13;20.70;;;1.50;99.90;;;;;;5027347;28;20190;-69
2022/01/16 05:35:27;;;;;;;51.60;20.50;;;1.50;99.90;;;;;;5027674;28;20526;-69
2022/01/16 05:37:53;;;;;;;54.87;20.70;;;1.40;99.90;;;;;;5028249;28;20609;-69
2022/01/16 05:40:18;;;;;;;47.17;19.57;;;1.40;99.90;;;;;;5027583;28;20194;-70
2022/01/16 05:42:44;;;;;;;53.50;19.50;;;1.70;99.90;;;;;;5027988;28;20574;-70
2022/01/16 05:45:10;;;;;;;50.50;19.33;;;1.50;99.90;;;;;;5025616;28;20177;-70
2022/01/16 05:47:35;;;;;;;53.40;21.20;;;1.50;99.90;;;;;;5022261;28;20733;-70
2022/01/16 05:50:00;;;;;;;50.93;20.80;;;1.50;99.90;;;;;;5027864;28;20200;-70
2022/01/16 05:52:26;;;;;;;45.70;18.83;;;;;;;;;;5024938;28;20225;-70
2022/01/16 05:54:52;;;;;;;58.60;22.03;;;1.50;99.90;;;;;;5027960;28;20174;-70
2022/01/16 05:57:17;;;;;;;55.03;20.87;;;1.50;99.90;;;;;;5031616;28;20672;-70
2022/01/16 05:59:43;;;;;;;56.70;20.97;;;1.50;99.90;;;;;;5031085;28;20593;-71
2022/01/16 06:02:09;;;;;;;50.43;20.07;;;1.50;99.90;;;;;;5031635;28;20213;-70
2022/01/16 06:04:34;;;;;;;46.83;20.30;;;;;;;;;;5037336;28;20177;-70
2022/01/16 06:07:00;;;;;;;58.50;22.17;;;1.50;99.90;;;;;;5029917;28;20212;-71
2022/01/16 06:09:26;;;;;;;54.50;20.83;;;1.40;99.90;;;;;;5024258;28;20264;-70
2022/01/16 06:11:52;;;;;;;50.93;19.70;;;;;;;;;;5012374;28;20208;-70
2022/01/16 06:14:18;;;;;;;53.03;20.60;;;1.40;99.90;;;;;;5031157;28;20174;-69
2022/01/16 06:16:43;;;;;;;53.23;21.50;;;1.30;99.90;;;;;;5028702;28;20482;-70
2022/01/16 06:19:09;;;;;;;60.20;21.07;;;1.30;99.90;;;;;;5029176;28;20691;-71
2022/01/16 06:21:35;;;;;;;63.43;21.90;;;1.70;99.90;;;;;;5030917;28;20189;-70
2022/01/16 06:24:01;;;;;;;55.50;21.27;;;;;;;;;;5016737;28;20205;-70
2022/01/16 06:26:26;;;;;;;51.70;19.90;;;1.30;99.90;;;;;;5037054;28;20208;-70
2022/01/16 06:28:52;;;;;;;70.33;22.07;;;1.40;99.90;;;;;;5029100;28;20942;-70
2022/01/16 06:31:17;;;;;;;59.67;21.97;;;1.80;99.90;;;;;;5028944;28;20186;-70
2022/01/16 06:33:43;;;;;;;48.80;19.23;;;;;;;;;;5029135;28;20198;-70
2022/01/16 06:36:09;;;;;;;51.43;19.57;;;1.40;99.90;;;;;;5029130;28;20177;-70
2022/01/16 06:38:35;;;;;;;60.67;19.57;;;1.40;99.90;;;;;;5029561;28;20212;-70
2022/01/16 06:41:00;;;;;;;62.13;20.50;;;1.40;99.90;;;;;;5030316;28;20627;-70
2022/01/16 06:43:26;;;;;;;53.60;19.90;;;1.70;99.90;;;;;;5027100;28;20208;-68
2022/01/16 06:45:51;;;;;;;51.30;19.93;;;1.40;99.90;;;;;;5029614;28;20500;-70
2022/01/16 06:48:17;;;;;;;51.07;21.23;;;;;;;;;;5029011;28;20253;-70
2022/01/16 06:50:43;;;;;;;48.17;18.97;;;1.30;99.90;;;;;;5030014;28;20200;-71
2022/01/16 06:53:08;;;;;;;49.30;19.73;;;1.40;99.90;;;;;;5028937;28;20200;-70
2022/01/16 06:55:34;;;;;;;50.40;19.67;;;1.40;99.90;;;;;;5028305;28;20182;-70
2022/01/16 06:57:59;;;;;;;53.80;18.93;;;1.40;99.90;;;;;;5029535;28;20190;-72
2022/01/16 07:00:25;;;;;;;47.23;18.83;;;1.50;99.90;;;;;;5027446;28;20233;-70
2022/01/16 07:02:50;;;;;;;53.90;19.80;;;1.50;99.90;;;;;;5027562;28;20201;-68
2022/01/16 07:05:16;;;;;;;47.90;18.93;;;1.50;99.90;;;;;;5028432;28;20177;-70
2022/01/16 07:07:41;;;;;;;53.30;20.80;;;1.50;99.90;;;;;;5028839;28;20182;-70
2022/01/16 07:10:07;;;;;;;49.10;18.27;;;1.50;99.90;;;;;;5028972;28;20202;-70
2022/01/16 07:12:33;;;;;;;45.37;20.00;;;1.50;99.90;;;;;;5029597;28;20529;-70
2022/01/16 07:14:58;;;;;;;52.73;20.47;;;1.80;99.90;;;;;;5028341;28;20428;-70
2022/01/16 07:17:24;;;;;;;51.20;21.00;;;1.40;99.90;;;;;;5027634;28;20197;-70
2022/01/16 07:19:49;;;;;;;57.17;22.13;;;1.30;99.90;;;;;;5028372;28;20201;-70
2022/01/16 07:22:15;;;;;;;49.23;19.67;;;;;;;;;;5027780;28;20205;-70
2022/01/16 07:24:41;;;;;;;50.73;23.63;;;1.40;99.90;;;;;;5028344;28;20178;-70
2022/01/16 07:27:06;;;;;;;50.43;20.37;;;1.40;99.90;;;;;;5027984;28;20222;-71
2022/01/16 07:29:32;;;;;;;55.80;21.67;;;1.60;99.90;;;;;;5029254;28;20194;-70
2022/01/16 07:31:58;;;;;;;49.73;19.33;;;;;;;;;;5029034;28;20502;-71
2022/01/16 07:34:23;;;;;;;57.37;22.10;;;1.60;99.90;;;;;;5027878;28;20374;-71
2022/01/16 07:36:49;;;;;;;54.83;20.37;;;1.60;99.90;;;;;;5028212;28;20971;-70
2022/01/16 07:39:14;;;;;;;50.53;20.57;;;1.70;99.90;;;;;;5027702;28;20205;-70
2022/01/16 07:41:40;;;;;;;62.70;23.10;;;1.60;99.90;;;;;;5028654;28;20174;-70
2022/01/16 07:44:06;;;;;;;54.92;24.02;;;1.70;99.90;;;;;;5026488;28;20519;-70
2022/01/16 07:46:31;;;;;;;57.57;23.37;;;1.70;99.90;;;;;;5028172;28;20612;-70
2022/01/16 07:48:57;;;;;;;52.80;20.60;;;;;;;;;;5027885;28;20234;-70
2022/01/16 07:51:25;;;;;;;44.83;21.60;;;1.70;99.90;;;;;;5028497;28;20642;-70
2022/01/16 07:53:52;;;;;;;50.10;22.17;;;1.70;99.90;;;;;;5027727;28;20424;-68
2022/01/16 07:56:18;;;;;;;48.60;21.47;;;1.60;99.90;;;;;;5028153;28;20519;-70
2022/01/16 07:58:43;;;;;;;49.77;21.23;;;1.70;99.90;;;;;;5027113;28;20539;-72
2022/01/16 08:01:09;;;;;;;52.23;20.90;;;1.70;99.90;;;;;;5026075;28;20381;-70
2022/01/16 08:03:35;;;;;;;52.80;22.17;;;1.70;99.90;;;;;;5027016;28;20210;-70
2022/01/16 08:06:01;;;;;;;53.17;21.77;;;1.70;99.90;;;;;;5032450;28;20196;-71
2022/01/16 08:08:26;;;;;;;50.90;21.27;;;1.80;99.90;;;;;;5034854;28;20509;-72
2022/01/16 08:10:52;;;;;;;53.70;20.27;;;2.10;99.90;;;;;;5033189;28;20213;-71
2022/01/16 08:13:17;;;;;;;58.90;25.40;;;2.20;99.90;;;;;;5034376;28;20186;-72
2022/01/16 08:15:43;;;;;;;46.37;22.20;;;2.30;99.90;;;;;;5030959;28;20251;-68
2022/01/16 08:18:10;;;;;;;50.20;21.63;;;2.20;99.90;;;;;;5027333;28;20204;-70
2022/01/16 08:20:36;;;;;;;46.70;20.63;;;2.20;99.90;;;;;;5028079;28;20436;-69
2022/01/16 08:23:02;;;;;;;50.10;22.50;;;;;;;;;;5027147;28;20468;-71
2022/01/16 08:25:28;;;;;;;48.20;22.57;;;2.10;99.90;;;;;;5027164;28;20427;-70
2022/01/16 08:27:53;;;;;;;48.90;21.87;;;2.10;99.90;;;;;;5028233;28;20447;-69
2022/01/16 08:30:19;;;;;;;47.47;22.07;;;2.00;99.90;;;;;;5030178;28;20547;-70
2022/01/16 08:32:45;;;;;;;45.00;19.90;;;2.00;99.90;;;;;;5027363;28;20700;-70
2022/01/16 08:35:12;;;;;;;50.50;23.30;;;2.30;99.90;;;;;;5026678;28;20185;-69
2022/01/16 08:37:38;;;;;;;59.87;22.60;;;2.10;99.90;;;;;;5026410;28;20186;-70
2022/01/16 08:40:05;;;;;;;51.73;21.63;;;2.00;99.90;;;;;;5027110;28;20526;-71
2022/01/16 08:42:30;;;;;;;50.17;21.27;;;2.00;99.90;;;;;;5027031;28;20451;-69
2022/01/16 08:44:56;;;;;;;51.93;23.30;;;1.90;99.90;;;;;;5019464;28;20502;-70
2022/01/16 08:47:22;;;;;;;54.60;21.83;;;2.20;99.90;;;;;;5023309;28;20185;-69
2022/01/16 08:49:48;;;;;;;50.03;22.97;;;;;;;;;;5028012;28;20307;-72
2022/01/16 08:52:13;;;;;;;52.97;20.40;;;2.00;99.90;;;;;;5026496;28;21087;-70
2022/01/16 08:54:39;;;;;;;54.03;24.47;;;2.00;99.90;;;;;;5030343;28;20526;-70
2022/01/16 08:57:06;;;;;;;51.10;22.93;;;;;;;;;;5025397;28;20182;-71
2022/01/16 08:59:32;;;;;;;53.20;24.97;;;2.00;99.90;;;;;;5028760;28;20527;-69
2022/01/16 09:01:58;;;;;;;51.10;22.30;;;;;;;;;;5026227;28;20513;-70
2022/01/16 09:04:23;;;;;;;47.77;21.40;;;2.20;99.90;;;;;;5028368;28;20176;-71
2022/01/16 09:06:49;;;;;;;51.83;22.63;;;2.20;99.90;;;;;;5028151;28;20404;-70
2022/01/16 09:09:15;;;;;;;58.57;24.13;;;;;;;;;;5027861;28;20214;-70
2022/01/16 09:11:40;;;;;;;56.00;22.40;;;2.10;99.90;;;;;;5028219;28;20244;-70
2022/01/16 09:14:06;;;;;;;50.97;21.97;;;2.20;99.90;;;;;;5028364;28;20467;-70
2022/01/16 09:16:33;;;;;;;53.37;22.90;;;2.20;99.90;;;;;;5027813;28;20181;-70
2022/01/16 09:18:59;;;;;;;51.73;23.87;;;2.10;99.90;;;;;;5027832;28;20201;-69
2022/01/16 09:21:24;;;;;;;53.77;23.03;;;2.20;99.90;;;;;;5027720;28;20515;-71
2022/01/16 09:23:51;;;;;;;51.67;23.57;;;;;;;;;;5026006;28;20460;-71
2022/01/16 09:26:17;;;;;;;48.90;22.27;;;2.30;99.90;;;;;;5028546;28;20178;-71
2022/01/16 09:28:43;;;;;;;53.60;23.40;;;2.40;99.90;;;;;;5028475;28;20405;-71
2022/01/16 09:31:10;;;;;;;52.70;23.60;;;2.40;99.90;;;;;;5031480;28;20486;-71
2022/01/16 09:33:36;;;;;;;52.87;25.37;;;2.40;99.90;;;;;;5031988;28;20181;-71
2022/01/16 09:36:03;;;;;;;54.23;21.73;;;2.40;99.90;;;;;;5032161;28;20409;-70
2022/01/16 09:38:29;;;;;;;54.67;24.50;;;;;;;;;;5030681;28;20568;-71
2022/01/16 09:40:55;;;;;;;51.97;22.60;;;2.40;99.90;;;;;;5031899;28;20562;-71
2022/01/16 09:43:21;;;;;;;51.10;23.43;;;2.40;99.90;;;;;;5032030;28;21183;-70
2022/01/16 09:45:48;;;;;;;50.27;22.30;;;2.80;99.90;;;;;;5031967;28;20185;-70
2022/01/16 09:48:15;;;;;;;53.27;22.33;;;2.50;99.90;;;;;;5031718;28;20415;-70
2022/01/16 09:50:41;;;;;;;52.70;21.57;;;;;;;;;;5032113;28;20432;-71
2022/01/16 09:53:06;;;;;;;51.63;22.07;;;2.50;99.90;;;;;;5031762;28;20409;-70
2022/01/16 09:55:32;;;;;;;54.53;24.03;;;2.50;99.90;;;;;;5031380;28;20261;-70
2022/01/16 09:57:58;;;;;;;56.40;23.10;;;2.50;99.90;;;;;;5031776;28;20503;-70
2022/01/16 10:00:24;;;;;;;50.17;22.43;;;2.50;99.90;;;;;;5031974;28;20247;-70
2022/01/16 10:02:50;;;;;;;52.67;22.83;;;;;;;;;;5031164;28;20226;-68
2022/01/16 10:05:26;;;;;;;55.20;23.23;;;2.40;99.90;;;;;;5028948;28;20764;-71
2022/01/16 10:07:56;;;;;;;54.93;23.40;;;2.40;99.90;;;;;;5031993;28;20404;-71
2022/01/16 10:10:27;;;;;;;52.83;22.60;;;2.40;99.90;;;;;;5032096;28;20531;-71
2022/01/16 10:12:55;;;;;;;48.57;22.03;;;2.50;99.90;;;;;;5031573;28;20424;-71
2022/01/16 10:15:28;;;;;;;52.30;23.47;;;2.50;99.90;;;;;;5031732;28;20918;-70
2022/01/16 10:17:57;;;;;;;58.77;23.03;;;2.50;99.90;;;;;;5030880;28;20469;-70
2022/01/16 10:20:24;;;;;;;53.10;23.80;;;2.60;99.90;;;;;;5029190;28;20440;-70
2022/01/16 10:22:56;;;;;;;54.80;23.70;;;2.50;99.90;;;;;;5031170;28;20559;-70
2022/01/16 10:25:37;;;;;;;54.50;24.10;;;2.60;99.90;;;;;;5030418;28;20416;-70
2022/01/16 10:28:13;;;;;;;54.50;24.27;;;2.60;99.90;;;;;;5031203;28;20411;-70
2022/01/16 10:30:48;;;;;;;54.00;25.43;;;2.80;99.90;;;;;;5031625;28;20494;-71
2022/01/16 10:33:16;;;;;;;59.30;25.60;;;2.80;99.90;;;;;;5032112;28;20886;-71
2022/01/16 10:35:43;;;;;;;57.60;24.20;;;2.70;99.90;;;;;;5030825;28;20424;-70
2022/01/16 10:38:15;;;;;;;52.33;24.67;;;2.70;99.90;;;;;;5030428;28;20416;-71
2022/01/16 10:40:41;;;;;;;57.90;25.80;;;;;;;;;;5027979;28;20599;-76
2022/01/16 10:43:13;;;;;;;62.07;26.20;;;2.90;99.90;;;;;;5027812;28;20460;-71
2022/01/16 10:45:40;;;;;;;66.27;24.60;;;2.80;99.90;;;;;;5029539;28;20409;-70
2022/01/16 10:48:06;;;;;;;53.53;23.73;;;2.90;99.90;;;;;;5029544;28;20420;-70
2022/01/16 10:50:38;;;;;;;59.83;24.83;;;2.90;99.90;;;;;;5030763;28;20436;-72
2022/01/16 10:53:06;;;;;;;64.17;26.03;;;2.90;99.90;;;;;;5028137;28;20545;-70
2022/01/16 10:55:48;;;;;;;66.97;27.47;;;;;;;;;;5029527;28;20550;-69
2022/01/16 10:58:24;;;;;;;65.47;26.60;;;3.10;99.90;;;;;;5009337;28;20429;-69
2022/01/16 11:00:53;;;;;;;57.07;26.17;;;;;;;;;;5010196;28;20927;-71
2022/01/16 11:03:20;;;;;;;52.63;23.70;;;;;;;;;;5029384;28;20459;-70
2022/01/16 11:05:47;;;;;;;61.00;24.50;;;3.20;99.90;;;;;;5029254;28;20417;-70
2022/01/16 11:08:15;;;;;;;55.00;25.13;;;3.40;99.90;;;;;;5029520;28;20424;-71
2022/01/16 11:11:00;;;;;;;58.27;25.43;;;3.10;99.90;;;;;;5027434;28;20515;-70
2022/01/16 11:13:32;;;;;;;59.10;25.80;;;3.00;99.90;;;;;;5028456;28;20790;-71
2022/01/16 11:16:07;;;;;;;59.53;25.30;;;3.20;99.90;;;;;;5028241;28;20881;-71
2022/01/16 11:18:40;;;;;;;54.77;24.30;;;3.40;99.90;;;;;;5015909;28;20444;-70
2022/01/16 11:24:11;;;;;;;57.40;25.43;;;3.40;99.90;;;;;;5029363;28;20530;-70
2022/01/16 11:26:35;;;;;;;52.77;24.13;;;;;;;;;;5028874;28;20515;-70
2022/01/16 11:29:01;;;;;;;54.67;22.47;;;;;;;;;;5029464;28;20596;-70
2022/01/16 11:31:28;;;;;;;48.43;23.03;;;;;;;;;;5027650;28;20938;-70
2022/01/16 11:33:53;;;;;;;53.03;24.00;;;3.30;99.90;;;;;;5028542;28;20257;-70
2022/01/16 11:36:26;;;;;;;48.83;23.70;;;3.30;99.90;;;;;;5030675;28;20945;-70
2022/01/16 11:39:00;;;;;;;59.50;26.37;;;3.30;99.90;;;;;;5028153;28;20541;-71
2022/01/16 11:41:33;;;;;;;49.03;23.83;;;3.20;99.90;;;;;;5029323;28;20420;-70
2022/01/16 11:44:06;;;;;;;52.43;23.60;;;3.30;99.90;;;;;;5029040;28;20966;-70
2022/01/16 11:46:34;;;;;;;49.73;23.17;;;3.30;99.90;;;;;;5024358;28;20902;-71
2022/01/16 11:49:03;;;;;;;48.50;22.97;;;3.30;99.90;;;;;;5027561;28;20494;-70
2022/01/16 11:51:40;;;;;;;52.10;22.80;;;3.30;99.90;;;;;;5027377;28;20520;-70
2022/01/16 11:54:21;;;;;;;48.50;22.10;;;3.30;99.90;;;;;;5027588;28;21104;-71
2022/01/16 11:56:46;;;;;;;50.97;23.50;;;3.20;99.90;;;;;;5029340;28;20462;-70
2022/01/16 11:59:12;;;;;;;49.43;21.67;;;3.10;99.90;;;;;;5028793;28;20488;-70
2022/01/16 12:02:00;;;;;;;50.57;22.37;;;3.20;99.90;;;;;;5028959;28;20240;-70
2022/01/16 12:04:31;;;;;;;44.93;21.13;;;3.20;99.90;;;;;;5028489;28;20177;-70
2022/01/16 12:07:12;;;;;;;48.17;23.17;;;3.40;99.90;;;;;;5029261;28;20715;-71
2022/01/16 12:12:12;;;;;;;57.00;22.20;;;;;;;;;;5029014;28;20816;-71
2022/01/16 12:15:01;;;;;;;45.43;20.73;;;3.40;99.90;;;;;;5027244;28;20494;-71
2022/01/16 12:17:40;;;;;;;50.00;23.10;;;3.50;99.90;;;;;;5027865;28;20197;-71
2022/01/16 12:20:12;;;;;;;52.73;23.00;;;3.50;99.90;;;;;;5028905;28;20459;-70
2022/01/16 12:22:44;;;;;;;45.90;20.23;;;;;;;;;;5026342;28;20452;-70
2022/01/16 12:25:27;;;;;;;49.57;23.80;;;3.50;99.90;;;;;;5025550;28;20522;-70
2022/01/16 12:27:54;;;;;;;50.13;23.27;;;3.60;99.90;;;;;;5028532;28;20396;-71
2022/01/16 12:30:33;;;;;;;51.87;21.63;;;3.50;99.90;;;;;;5027594;28;20435;-70
2022/01/16 12:33:13;;;;;;;41.60;20.40;;;4.00;99.90;;;;;;5028293;28;20417;-70
2022/01/16 12:35:39;;;;;;;41.43;20.70;;;3.70;99.90;;;;;;5028081;28;20429;-70
2022/01/16 12:38:15;;;;;;;38.87;19.97;;;3.70;99.90;;;;;;5028363;28;20807;-70
2022/01/16 12:40:44;;;;;;;44.27;20.47;;;3.90;99.90;;;;;;5029936;28;21445;-71
2022/01/16 12:43:16;;;;;;;44.60;20.47;;;3.90;99.90;;;;;;5027041;28;21053;-70
2022/01/16 12:45:43;;;;;;;43.73;20.50;;;3.90;99.90;;;;;;5028417;28;20436;-70
2022/01/16 12:48:09;;;;;;;49.57;22.07;;;3.90;99.90;;;;;;5027642;28;21029;-70
2022/01/16 12:50:36;;;;;;;40.20;19.47;;;4.00;99.90;;;;;;5028080;28;20437;-71
2022/01/16 12:53:03;;;;;;;45.93;21.20;;;3.90;99.90;;;;;;5028168;28;20423;-70
2022/01/16 12:55:30;;;;;;;39.97;20.17;;;3.90;99.90;;;;;;5026179;28;20536;-70
2022/01/16 12:58:17;;;;;;;44.77;19.10;;;3.90;99.90;;;;;;5028203;28;20447;-70
2022/01/16 13:01:04;;;;;;;44.40;19.97;;;3.90;99.90;;;;;;5027305;28;20501;-71
2022/01/16 13:03:32;;;;;;;38.13;19.73;;;3.90;99.90;;;;;;5025420;28;20996;-70
2022/01/16 13:06:34;;;;;;;45.10;21.03;;;3.90;99.90;;;;;;5026137;28;20449;-70
2022/01/16 13:09:10;;;;;;;43.77;21.23;;;4.10;99.90;;;;;;5027157;28;20767;-71
2022/01/16 13:11:48;;;;;;;44.30;20.13;;;4.10;99.90;;;;;;5008394;28;20534;-71
2022/01/16 13:14:16;;;;;;;43.33;21.10;;;4.10;99.90;;;;;;5022205;28;20447;-71
2022/01/16 13:16:45;;;;;;;46.07;21.40;;;4.10;99.90;;;;;;5027609;28;20504;-70
2022/01/16 13:19:25;;;;;;;46.43;20.87;;;4.20;99.90;;;;;;5027438;28;20448;-71
2022/01/16 13:22:11;;;;;;;41.70;18.83;;;4.20;99.90;;;;;;5026662;28;20522;-70
2022/01/16 13:24:58;;;;;;;44.30;19.50;;;3.80;99.90;;;;;;5026725;28;20470;-70
2022/01/16 13:27:31;;;;;;;45.13;20.80;;;4.10;99.90;;;;;;5008244;28;20409;-70
2022/01/16 13:30:03;;;;;;;46.73;20.50;;;4.00;99.90;;;;;;5026821;28;21096;-70
2022/01/16 13:32:29;;;;;;;47.13;19.13;;;;;;;;;;5025924;28;21018;-70
2022/01/16 13:34:57;;;;;;;42.30;17.90;;;4.20;99.90;;;;;;5027352;28;20445;-70
2022/01/16 13:37:30;;;;;;;44.00;20.40;;;4.30;99.90;;;;;;5026705;28;20969;-70
2022/01/16 13:40:10;;;;;;;43.23;21.67;;;4.20;99.90;;;;;;5027297;28;20597;-71
2022/01/16 13:42:40;;;;;;;48.00;20.60;;;4.30;99.90;;;;;;5027823;28;20468;-71
2022/01/16 13:45:38;;;;;;;41.17;19.90;;;4.40;99.90;;;;;;5028090;28;20409;-71
2022/01/16 13:48:08;;;;;;;43.97;21.67;;;4.40;99.90;;;;;;5027154;28;20417;-70
2022/01/16 13:50:33;;;;;;;41.30;20.07;;;4.50;99.90;;;;;;5027266;28;20444;-70